If you wish to contribute or participate in the discussions about articles you are invited to join SKYbrary as a registered user

 Actions

Fukue Airport

From SKYbrary Wiki

RJFE
Airport
ICAO: RJFE – IATA: FUJ
Summary
Name Fukue Airport
Region Asia and Pacific
Territory Japan JP.gif
Location Goto, Nagasaki Prefecture
Serving Fukue
Elevation 76.505 m
251 ft76.505 m
Coordinates 32° 40' 5.77" N, 128° 50' 14.64" E
Runways
Designator Length Width Surface ROPS
3/21 2000 m6,561.68 ft
46 m150.919 ft
ASP yes/yes


METAR
Observation RJFE 210000Z 03014KT 9999 FEW015 SCT160 BKN/// 22/19 Q1012
Station Fukue Airport
Date/Time 21 September 2019 00:00:00
Wind direction 30°
Wind speed 14 kts
Lowest cloud amount few clouds
Temperature 22°C
Dew point 19°C
Humidity 83%
QNH 1012 hPa
Weather condition n/a

WX
Tag(s) Tropical Revolving Storm

Fukue Airport, is an airport located 1.7nm3,148.4 m
3.148 km
10,329.396 ft
southwest of Gotō, Nagasaki Prefecture, off the western coast of Kyūshū, Japan. The airport also serves the city of Fukue. It is also known as Gotō-Fukue Airport.

Climatology

Humid Sub-tropical climate (Köppen climate classification Cfa)

Maps

Terrain

Loading map...

Airport Layout

Loading map...


Accidents & Serious Incidents at or in vicinity of RJFE

None on SKYbrary